Time;durP1;ratioP1;P1;durP2;ratioP2;P2;SDS_P1;SDS_P2;PMS_P1;PMS_P2;Temp;Humidity;BMP_temperature;BMP_pressure;BME280_temperature;BME280_humidity;BME280_pressure;Samples;Min_cycle;Max_cycle;Signal;HPM_P1;HPM_P2
2022/03/28 00:00:36;;;;;;;24.48;14.15;;;;;;;;;;5093713;28;20047;-66
2022/03/28 00:03:03;;;;;;;24.10;14.82;;;;;;;;;;5090142;28;20027;-63
2022/03/28 00:05:29;;;;;;;25.08;14.57;;;;;;;;;;5094160;28;20503;-66
2022/03/28 00:07:55;;;;;;;22.90;13.75;;;;;;;;;;5098536;28;20054;-66
2022/03/28 00:10:21;;;;;;;23.75;14.57;;;;;;;;;;5093842;28;20047;-66
2022/03/28 00:12:47;;;;;;;24.17;14.77;;;;;;;;;;5093975;28;20028;-66
2022/03/28 00:15:13;;;;;;;26.48;14.43;;;;;;;;;;5092921;28;20287;-66
2022/03/28 00:17:39;;;;;;;21.52;13.48;;;;;;;;;;5094027;28;20503;-64
2022/03/28 00:20:07;;;;;;;21.35;14.85;;;;;;;;;;5089164;28;20081;-63
2022/03/28 00:22:33;;;;;;;24.33;14.65;;;;;;;;;;5097602;28;20553;-65
2022/03/28 00:24:59;;;;;;;27.33;15.07;;;;;;;;;;5095684;28;20023;-66
2022/03/28 00:27:25;;;;;;;24.02;15.35;;;;;;;;;;5098321;28;20061;-66
2022/03/28 00:29:51;;;;;;;24.90;14.77;;;;;;;;;;5091736;28;20088;-65
2022/03/28 00:32:17;;;;;;;24.13;14.80;;;;;;;;;;5095652;28;20139;-66
2022/03/28 00:34:43;;;;;;;26.98;14.52;;;;;;;;;;5095939;28;20377;-65
2022/03/28 00:37:10;;;;;;;22.65;14.63;;;;;;;;;;5097686;28;20073;-64
2022/03/28 00:39:36;;;;;;;24.45;15.18;;;;;;;;;;5099316;28;20539;-63
2022/03/28 00:42:02;;;;;;;21.73;14.38;;;;;;;;;;5092341;27;20020;-63
2022/03/28 00:44:30;;;;;;;23.23;14.45;;;;;;;;;;5099091;28;20486;-65
2022/03/28 00:46:56;;;;;;;25.25;15.38;;;;;;;;;;5094477;28;20760;-65
2022/03/28 00:49:22;;;;;;;26.52;14.00;;;;;;;;;;5096229;28;20107;-65
2022/03/28 00:51:48;;;;;;;24.23;15.07;;;;;;;;;;5095147;28;20088;-65
2022/03/28 00:54:14;;;;;;;23.10;15.13;;;;;;;;;;5097369;28;20196;-66
2022/03/28 00:56:42;;;;;;;25.92;14.63;;;;;;;;;;5092339;28;20185;-65
2022/03/28 00:59:08;;;;;;;24.02;14.88;;;;;;;;;;5091291;28;20024;-65
2022/03/28 01:01:34;;;;;;;23.98;14.70;;;;;;;;;;5096379;28;20023;-65
2022/03/28 01:04:00;;;;;;;25.50;14.98;;;;;;;;;;5092762;28;20028;-65
2022/03/28 01:06:26;;;;;;;24.95;14.88;;;;;;;;;;5091264;28;20038;-65
2022/03/28 01:08:52;;;;;;;26.73;15.90;;;;;;;;;;5091241;28;20088;-66
2022/03/28 01:11:19;;;;;;;26.35;15.68;;;;;;;;;;5097479;28;20108;-65
2022/03/28 01:13:45;;;;;;;23.55;15.27;;;;;;;;;;5088669;28;20038;-64
2022/03/28 01:16:11;;;;;;;27.17;15.63;;;;;;;;;;5095868;27;20043;-65
2022/03/28 01:18:37;;;;;;;24.65;15.52;;;;;;;;;;5094377;28;20024;-66
2022/03/28 01:21:04;;;;;;;25.67;14.88;;;;;;;;;;5093182;28;20378;-65
2022/03/28 01:23:30;;;;;;;25.60;15.52;;;;;;;;;;5097008;28;20132;-66
2022/03/28 01:25:57;;;;;;;27.70;16.10;;;;;;;;;;5096895;28;20660;-65
2022/03/28 01:28:24;;;;;;;28.65;15.50;;;;;;;;;;5095422;28;20032;-66
2022/03/28 01:30:51;;;;;;;24.15;15.05;;;;;;;;;;5091800;28;20024;-66
2022/03/28 01:33:17;;;;;;;25.95;15.52;;;;;;;;;;5097180;28;20096;-66
2022/03/28 01:35:44;;;;;;;26.35;15.32;;;;;;;;;;5092913;28;20498;-66
2022/03/28 01:38:13;;;;;;;25.95;15.80;;;;;;;;;;5086954;28;20043;-65
2022/03/28 01:40:41;;;;;;;26.83;15.18;;;;;;;;;;5094593;28;20023;-66
2022/03/28 01:43:07;;;;;;;24.70;14.80;;;;;;;;;;5098569;28;20034;-66
2022/03/28 01:45:33;;;;;;;27.98;15.80;;;;;;;;;;5091818;28;20020;-65
2022/03/28 01:47:59;;;;;;;24.70;15.80;;;;;;;;;;5091378;28;20097;-66
2022/03/28 01:50:25;;;;;;;23.80;15.35;;;;;;;;;;5097760;28;20116;-66
2022/03/28 01:52:52;;;;;;;27.45;16.17;;;;;;;;;;5091830;28;20471;-66
2022/03/28 01:55:19;;;;;;;26.02;15.70;;;;;;;;;;5094051;28;20121;-65
2022/03/28 01:57:45;;;;;;;26.92;16.15;;;;;;;;;;5092571;28;20709;-65
2022/03/28 02:00:15;;;;;;;27.52;15.60;;;;;;;;;;5089534;28;20028;-65
2022/03/28 02:02:42;;;;;;;25.65;16.23;;;;;;;;;;5094772;28;20425;-65
2022/03/28 02:05:11;;;;;;;25.42;15.10;;;;;;;;;;5095596;28;20031;-66
2022/03/28 02:07:37;;;;;;;25.85;16.42;;;;;;;;;;5093602;28;20136;-64
2022/03/28 02:10:03;;;;;;;27.10;16.98;;;;;;;;;;5095282;27;20496;-66
2022/03/28 02:12:29;;;;;;;31.98;16.92;;;;;;;;;;5089545;28;20681;-65
2022/03/28 02:14:55;;;;;;;26.50;15.98;;;;;;;;;;5094806;28;20023;-63
2022/03/28 02:17:21;;;;;;;28.15;16.38;;;;;;;;;;5096498;28;20435;-65
2022/03/28 02:19:47;;;;;;;26.17;16.35;;;;;;;;;;5092416;28;20035;-65
2022/03/28 02:22:13;;;;;;;27.63;15.85;;;;;;;;;;5092532;28;20043;-65
2022/03/28 02:24:39;;;;;;;24.40;15.90;;;;;;;;;;5089605;28;20024;-65
2022/03/28 02:27:06;;;;;;;28.40;16.15;;;;;;;;;;5088493;28;20384;-66
2022/03/28 02:29:31;;;;;;;26.38;16.15;;;;;;;;;;5092827;28;20393;-65
2022/03/28 02:31:57;;;;;;;28.70;15.88;;;;;;;;;;5088891;28;20024;-63
2022/03/28 02:34:23;;;;;;;27.98;16.63;;;;;;;;;;5093049;28;20501;-65
2022/03/28 02:36:49;;;;;;;28.23;16.15;;;;;;;;;;5088620;28;20032;-65
2022/03/28 02:39:15;;;;;;;28.00;16.10;;;;;;;;;;5091084;28;20103;-65
2022/03/28 02:41:41;;;;;;;29.00;16.95;;;;;;;;;;5091454;28;20103;-63
2022/03/28 02:44:07;;;;;;;29.60;16.60;;;;;;;;;;5087928;28;20034;-63
2022/03/28 02:46:33;;;;;;;25.98;16.50;;;;;;;;;;5088716;28;20028;-62
2022/03/28 02:48:59;;;;;;;29.75;16.48;;;;;;;;;;5094545;28;20050;-66
2022/03/28 02:51:25;;;;;;;26.50;16.65;;;;;;;;;;5093525;28;20088;-66
2022/03/28 02:53:51;;;;;;;28.48;16.13;;;;;;;;;;5088897;28;20028;-65
2022/03/28 02:56:17;;;;;;;31.92;17.05;;;;;;;;;;5095948;28;20513;-63
2022/03/28 02:58:43;;;;;;;28.30;16.00;;;;;;;;;;5096086;28;20050;-66
2022/03/28 03:01:09;;;;;;;28.08;16.33;;;;;;;;;;5091399;28;20028;-65
2022/03/28 03:03:35;;;;;;;27.25;16.13;;;;;;;;;;5089037;28;20030;-66
2022/03/28 03:06:02;;;;;;;29.90;16.80;;;;;;;;;;5094636;28;20099;-66
2022/03/28 03:08:28;;;;;;;30.42;16.95;;;;;;;;;;5094383;28;20024;-64
2022/03/28 03:10:54;;;;;;;26.83;16.13;;;;;;;;;;5099459;28;20024;-66
2022/03/28 03:13:20;;;;;;;30.88;16.27;;;;;;;;;;5099988;28;20199;-66
2022/03/28 03:15:46;;;;;;;29.63;17.30;;;;;;;;;;5095381;28;20032;-65
2022/03/28 03:18:12;;;;;;;27.90;15.85;;;;;;;;;;5098673;28;20086;-63
2022/03/28 03:20:38;;;;;;;30.10;17.02;;;;;;;;;;5100938;28;20102;-64
2022/03/28 03:23:04;;;;;;;31.27;18.15;;;;;;;;;;5096520;28;20058;-65
2022/03/28 03:25:30;;;;;;;30.00;17.23;;;;;;;;;;5095567;28;20457;-66
2022/03/28 03:27:57;;;;;;;29.95;16.83;;;;;;;;;;5098863;28;20028;-65
2022/03/28 03:30:23;;;;;;;32.45;17.73;;;;;;;;;;5092003;28;20107;-65
2022/03/28 03:32:49;;;;;;;31.23;16.60;;;;;;;;;;5098629;28;20171;-65
2022/03/28 03:35:15;;;;;;;29.83;16.75;;;;;;;;;;5089469;28;20996;-65
2022/03/28 03:37:41;;;;;;;35.78;17.60;;;;;;;;;;5096832;28;20043;-66
2022/03/28 03:40:08;;;;;;;28.00;16.58;;;;;;;;;;5095121;28;20509;-63
2022/03/28 03:42:34;;;;;;;29.50;17.40;;;;;;;;;;5098233;28;20043;-63
2022/03/28 03:45:01;;;;;;;30.83;17.20;;;;;;;;;;5097908;28;20127;-64
2022/03/28 03:47:27;;;;;;;33.58;16.75;;;;;;;;;;5098660;28;20031;-65
2022/03/28 03:49:53;;;;;;;32.55;16.60;;;;;;;;;;5095355;28;20023;-64
2022/03/28 03:52:19;;;;;;;32.70;17.95;;;;;;;;;;5091353;28;20175;-65
2022/03/28 03:54:45;;;;;;;28.08;16.58;;;;;;;;;;5100810;28;20129;-65
2022/03/28 03:57:11;;;;;;;32.55;16.77;;;;;;;;;;5095746;28;20590;-64
2022/03/28 03:59:37;;;;;;;29.00;16.48;;;;;;;;;;5094223;28;20491;-65
2022/03/28 04:02:03;;;;;;;28.02;16.40;;;;;;;;;;5089849;28;20027;-65
2022/03/28 04:04:29;;;;;;;29.05;16.80;;;;;;;;;;5096105;28;20024;-65
2022/03/28 04:06:55;;;;;;;31.20;17.15;;;;;;;;;;5097261;28;20073;-64
2022/03/28 04:09:21;;;;;;;28.67;16.70;;;;;;;;;;5092454;28;20035;-63
2022/03/28 04:11:47;;;;;;;29.05;16.88;;;;;;;;;;5094345;28;20137;-61
2022/03/28 04:14:14;;;;;;;31.38;16.38;;;;;;;;;;5094873;28;20101;-65
2022/03/28 04:16:40;;;;;;;29.38;16.23;;;;;;;;;;5092809;28;20275;-65
2022/03/28 04:19:06;;;;;;;30.95;17.13;;;;;;;;;;5095712;28;20028;-65
2022/03/28 04:21:32;;;;;;;31.55;17.27;;;;;;;;;;5096700;28;20106;-66
2022/03/28 04:23:58;;;;;;;29.05;16.85;;;;;;;;;;5095480;28;20024;-65
2022/03/28 04:26:24;;;;;;;30.35;16.50;;;;;;;;;;5089784;28;20041;-65
2022/03/28 04:28:50;;;;;;;32.05;16.70;;;;;;;;;;5092057;28;20031;-65
2022/03/28 04:31:16;;;;;;;26.55;15.90;;;;;;;;;;5095732;28;20060;-66
2022/03/28 04:33:42;;;;;;;29.38;17.00;;;;;;;;;;5093377;28;20127;-65
2022/03/28 04:36:08;;;;;;;30.70;17.13;;;;;;;;;;5094969;28;20114;-65
2022/03/28 04:38:34;;;;;;;30.58;16.98;;;;;;;;;;5089869;28;20119;-65
2022/03/28 04:41:00;;;;;;;29.13;17.30;;;;;;;;;;5088679;28;20038;-63
2022/03/28 04:43:26;;;;;;;32.80;18.33;;;;;;;;;;5093884;28;21071;-65
2022/03/28 04:45:52;;;;;;;31.30;16.83;;;;;;;;;;5097225;28;20035;-66
2022/03/28 04:48:18;;;;;;;27.90;16.15;;;;;;;;;;5095375;28;20504;-66
2022/03/28 04:50:44;;;;;;;28.95;16.25;;;;;;;;;;5096546;28;20092;-65
2022/03/28 04:53:10;;;;;;;28.05;16.00;;;;;;;;;;5092712;28;20132;-65
2022/03/28 04:55:36;;;;;;;28.27;16.50;;;;;;;;;;5098179;27;20082;-65
2022/03/28 04:58:02;;;;;;;27.52;15.93;;;;;;;;;;5096731;28;20039;-63
2022/03/28 05:00:28;;;;;;;32.67;17.65;;;;;;;;;;5090049;28;20115;-64
2022/03/28 05:02:54;;;;;;;29.52;15.63;;;;;;;;;;5092667;28;20111;-65
2022/03/28 05:05:20;;;;;;;32.72;17.63;;;;;;;;;;5096006;28;20024;-65
2022/03/28 05:07:46;;;;;;;30.10;17.27;;;;;;;;;;5100104;28;20638;-66
2022/03/28 05:10:12;;;;;;;29.73;16.33;;;;;;;;;;5092067;28;20178;-63
2022/03/28 05:12:38;;;;;;;31.00;17.52;;;;;;;;;;5092998;28;20140;-66
2022/03/28 05:15:04;;;;;;;33.45;17.17;;;;;;;;;;5093945;28;20462;-65
2022/03/28 05:17:31;;;;;;;34.17;16.80;;;;;;;;;;5088151;27;20142;-65
2022/03/28 05:19:58;;;;;;;31.45;17.92;;;;;;;;;;5088402;28;20028;-62
2022/03/28 05:22:25;;;;;;;43.42;26.15;;;;;;;;;;5095665;28;20044;-62
2022/03/28 05:24:51;;;;;;;32.95;19.35;;;;;;;;;;5094393;28;20019;-63
2022/03/28 05:27:18;;;;;;;34.38;18.20;;;;;;;;;;5094784;28;20081;-63
2022/03/28 05:29:44;;;;;;;31.92;18.20;;;;;;;;;;5098817;28;20043;-63
2022/03/28 05:32:11;;;;;;;29.38;17.35;;;;;;;;;;5093714;28;20066;-63
2022/03/28 05:34:37;;;;;;;32.88;17.67;;;;;;;;;;5092554;28;20031;-63
2022/03/28 05:37:07;;;;;;;36.10;17.65;;;;;;;;;;5093499;28;20023;-63
2022/03/28 05:39:33;;;;;;;31.15;16.73;;;;;;;;;;5094996;28;20364;-63
2022/03/28 05:42:00;;;;;;;33.22;16.83;;;;;;;;;;5097417;28;20477;-63
2022/03/28 05:44:26;;;;;;;33.45;17.02;;;;;;;;;;5091106;28;20115;-63
2022/03/28 05:46:52;;;;;;;34.13;17.88;;;;;;;;;;5089975;28;20114;-63
2022/03/28 05:49:24;;;;;;;37.28;18.70;;;;;;;;;;5092139;28;20039;-63
2022/03/28 05:51:51;;;;;;;33.97;17.05;;;;;;;;;;5089080;28;20024;-63
2022/03/28 05:54:18;;;;;;;40.60;19.23;;;;;;;;;;5090776;28;20028;-63
2022/03/28 05:56:44;;;;;;;38.42;18.40;;;;;;;;;;5093306;28;20507;-63
2022/03/28 05:59:10;;;;;;;34.42;17.85;;;;;;;;;;5096137;28;20058;-63
2022/03/28 06:01:36;;;;;;;37.83;18.20;;;;;;;;;;5087225;28;20394;-63
2022/03/28 06:04:03;;;;;;;36.20;17.85;;;;;;;;;;5093481;28;20024;-63
2022/03/28 06:06:29;;;;;;;33.72;16.90;;;;;;;;;;5099882;28;20054;-62
2022/03/28 06:08:55;;;;;;;34.70;18.48;;;;;;;;;;5097525;28;20043;-62
2022/03/28 06:11:22;;;;;;;32.67;17.42;;;;;;;;;;5093450;28;20041;-63
2022/03/28 06:13:48;;;;;;;36.75;18.45;;;;;;;;;;5088921;28;20450;-63
2022/03/28 06:16:14;;;;;;;35.38;18.15;;;;;;;;;;5093270;28;20032;-63
2022/03/28 06:18:40;;;;;;;38.03;18.77;;;;;;;;;;5093664;28;20024;-63
2022/03/28 06:21:07;;;;;;;36.70;18.58;;;;;;;;;;5091892;28;20028;-63
2022/03/28 06:23:33;;;;;;;31.50;18.30;;;;;;;;;;5098155;28;20062;-63
2022/03/28 06:26:00;;;;;;;41.80;21.67;;;;;;;;;;5089029;28;20035;-63
2022/03/28 06:28:26;;;;;;;43.17;19.98;;;;;;;;;;5095461;28;20031;-63
2022/03/28 06:30:52;;;;;;;41.05;20.83;;;;;;;;;;5093163;28;20032;-62
2022/03/28 06:33:18;;;;;;;41.50;20.48;;;;;;;;;;5088832;28;20059;-62
2022/03/28 06:35:45;;;;;;;38.72;20.25;;;;;;;;;;5093797;28;20075;-62
2022/03/28 06:38:11;;;;;;;43.00;21.33;;;;;;;;;;5097920;28;20027;-63
2022/03/28 06:40:37;;;;;;;39.85;20.67;;;;;;;;;;5091829;28;20814;-63
2022/03/28 06:43:04;;;;;;;42.30;20.48;;;;;;;;;;5092279;28;20359;-63
2022/03/28 06:45:31;;;;;;;38.15;21.40;;;;;;;;;;5091188;28;20016;-62
2022/03/28 06:47:57;;;;;;;39.33;21.48;;;;;;;;;;5086065;28;20513;-62
2022/03/28 06:50:24;;;;;;;41.13;21.50;;;;;;;;;;5089677;28;20103;-63
2022/03/28 06:52:50;;;;;;;49.58;23.88;;;;;;;;;;5093910;28;20052;-62
2022/03/28 06:55:16;;;;;;;47.67;23.85;;;;;;;;;;5096733;28;20031;-62
2022/03/28 06:57:42;;;;;;;45.85;23.65;;;;;;;;;;5096160;28;20055;-63
2022/03/28 07:00:12;;;;;;;46.97;24.17;;;;;;;;;;5090603;28;20059;-62
2022/03/28 07:02:38;;;;;;;47.40;22.98;;;;;;;;;;5091740;28;20023;-63
2022/03/28 07:05:05;;;;;;;45.38;23.00;;;;;;;;;;5088940;28;20044;-62
2022/03/28 07:07:40;;;;;;;48.58;23.85;;;;;;;;;;5088558;28;20474;-62
2022/03/28 07:10:06;;;;;;;47.50;23.55;;;;;;;;;;5093924;28;20453;-62
2022/03/28 07:12:32;;;;;;;50.13;24.55;;;;;;;;;;5096862;28;20549;-63
2022/03/28 07:14:58;;;;;;;46.97;23.42;;;;;;;;;;5094919;28;20456;-62
2022/03/28 07:17:24;;;;;;;46.13;23.23;;;;;;;;;;5091288;28;20038;-62
2022/03/28 07:19:50;;;;;;;49.10;24.48;;;;;;;;;;5090768;28;20016;-62
2022/03/28 07:22:16;;;;;;;47.83;24.35;;;;;;;;;;5091363;28;20125;-63
2022/03/28 07:24:42;;;;;;;49.72;24.58;;;;;;;;;;5095669;28;20047;-62
2022/03/28 07:27:08;;;;;;;66.50;26.17;;;;;;;;;;5090985;28;20058;-62
2022/03/28 07:29:34;;;;;;;53.58;24.88;;;;;;;;;;5090572;28;20556;-62
2022/03/28 07:32:00;;;;;;;49.67;25.55;;;;;;;;;;5089736;28;20036;-62
2022/03/28 07:34:29;;;;;;;54.95;26.20;;;;;;;;;;5094321;28;20396;-62
2022/03/28 07:36:55;;;;;;;48.17;24.70;;;;;;;;;;5090823;28;20644;-62
2022/03/28 07:39:21;;;;;;;43.97;25.13;;;;;;;;;;5086297;28;20114;-62
2022/03/28 07:41:48;;;;;;;47.33;25.85;;;;;;;;;;5081976;28;20463;-62
2022/03/28 07:44:14;;;;;;;44.42;25.55;;;;;;;;;;5086920;28;20039;-62
2022/03/28 07:46:41;;;;;;;46.13;25.13;;;;;;;;;;5090730;28;20053;-62
2022/03/28 07:49:10;;;;;;;47.35;26.52;;;;;;;;;;5092179;28;20030;-62
2022/03/28 07:51:36;;;;;;;51.00;27.10;;;;;;;;;;5090646;28;20443;-62
2022/03/28 07:54:02;;;;;;;45.90;25.17;;;;;;;;;;5097790;28;20076;-62
2022/03/28 07:56:28;;;;;;;48.00;24.90;;;;;;;;;;5095802;28;20660;-62
2022/03/28 07:58:54;;;;;;;46.58;26.88;;;;;;;;;;5094518;28;20032;-62
2022/03/28 08:01:20;;;;;;;46.42;26.23;;;;;;;;;;5091911;28;20066;-62
2022/03/28 08:03:46;;;;;;;49.92;25.10;;;;;;;;;;5095569;28;20034;-62
2022/03/28 08:06:12;;;;;;;45.75;24.55;;;;;;;;;;5097918;28;20467;-63
2022/03/28 08:08:38;;;;;;;45.92;24.63;;;;;;;;;;5090866;28;20035;-62
2022/03/28 08:11:07;;;;;;;47.67;24.92;;;;;;;;;;5091923;28;20032;-62
2022/03/28 08:13:33;;;;;;;45.10;26.05;;;;;;;;;;5095831;28;20043;-63
2022/03/28 08:15:59;;;;;;;42.13;24.92;;;;;;;;;;5092705;28;20483;-62
2022/03/28 08:18:26;;;;;;;48.35;26.08;;;;;;;;;;5098721;28;20027;-63
2022/03/28 08:20:52;;;;;;;47.50;24.75;;;;;;;;;;5097001;28;20020;-62
2022/03/28 08:23:20;;;;;;;41.83;24.08;;;;;;;;;;5090509;28;20556;-62
2022/03/28 08:25:46;;;;;;;42.08;25.85;;;;;;;;;;5097133;28;20099;-63
2022/03/28 08:28:12;;;;;;;43.33;25.48;;;;;;;;;;5093179;28;20151;-62
2022/03/28 08:30:38;;;;;;;39.88;24.55;;;;;;;;;;5096936;28;20201;-63
2022/03/28 08:33:04;;;;;;;40.58;24.75;;;;;;;;;;5097109;28;20035;-62
2022/03/28 08:35:30;;;;;;;41.88;25.05;;;;;;;;;;5102340;28;20054;-62
2022/03/28 08:37:56;;;;;;;38.85;24.48;;;;;;;;;;5098511;28;20103;-62
2022/03/28 08:40:22;;;;;;;41.38;23.80;;;;;;;;;;5100262;28;20028;-62
2022/03/28 08:42:49;;;;;;;36.78;23.23;;;;;;;;;;5097433;28;20380;-62
2022/03/28 08:45:15;;;;;;;42.08;24.80;;;;;;;;;;5097156;28;20098;-62
2022/03/28 08:47:43;;;;;;;38.45;24.05;;;;;;;;;;5093627;28;20044;-62
2022/03/28 08:50:13;;;;;;;44.80;24.42;;;;;;;;;;5098121;28;20105;-62
2022/03/28 08:52:42;;;;;;;40.90;24.92;;;;;;;;;;5093019;28;20058;-62
2022/03/28 08:55:11;;;;;;;39.70;24.65;;;;;;;;;;5088507;28;20113;-62
2022/03/28 08:57:37;;;;;;;41.25;23.98;;;;;;;;;;5090594;28;20040;-62
2022/03/28 09:00:05;;;;;;;39.95;24.27;;;;;;;;;;5096038;28;20115;-63
2022/03/28 09:02:33;;;;;;;38.75;24.52;;;;;;;;;;5093866;28;20483;-62
2022/03/28 09:04:59;;;;;;;40.35;25.25;;;;;;;;;;5092437;28;20166;-62
2022/03/28 09:07:28;;;;;;;42.53;24.70;;;;;;;;;;5100304;28;20027;-62
2022/03/28 09:10:02;;;;;;;36.55;24.17;;;;;;;;;;5090292;28;20028;-62
2022/03/28 09:12:28;;;;;;;;;;;;;;;;;;5095053;28;20050;-62
2022/03/28 09:14:58;;;;;;;40.97;24.40;;;;;;;;;;5087321;28;19967;-62
2022/03/28 09:17:25;;;;;;;43.30;24.58;;;;;;;;;;5095374;28;20046;-62
2022/03/28 09:19:53;;;;;;;35.60;23.30;;;;;;;;;;5091663;28;20028;-62
2022/03/28 09:22:32;;;;;;;39.85;24.02;;;;;;;;;;5094409;28;20066;-62
2022/03/28 09:25:00;;;;;;;44.28;25.92;;;;;;;;;;5096635;28;20023;-62
2022/03/28 09:27:28;;;;;;;40.05;24.73;;;;;;;;;;5094347;28;20026;-63
2022/03/28 09:29:55;;;;;;;39.58;24.00;;;;;;;;;;5091582;28;20101;-62
2022/03/28 09:32:24;;;;;;;40.40;25.55;;;;;;;;;;5091768;28;20437;-62
2022/03/28 09:35:19;;;;;;;39.72;24.30;;;;;;;;;;5098427;28;20119;-62
2022/03/28 09:37:49;;;;;;;38.78;24.70;;;;;;;;;;5085217;28;20508;-62
2022/03/28 09:40:36;;;;;;;40.47;24.80;;;;;;;;;;5093741;28;20043;-62
2022/03/28 09:43:04;;;;;;;40.08;24.50;;;;;;;;;;5089142;28;20111;-62
2022/03/28 09:45:35;;;;;;;38.08;24.35;;;;;;;;;;5092218;28;20023;-62
2022/03/28 09:48:02;;;;;;;38.70;24.15;;;;;;;;;;5094470;28;20028;-62
2022/03/28 09:50:29;;;;;;;41.35;23.15;;;;;;;;;;5092455;27;20111;-62
2022/03/28 09:52:55;;;;;;;40.15;24.55;;;;;;;;;;5097265;28;20084;-62
2022/03/28 09:55:22;;;;;;;38.50;24.08;;;;;;;;;;5092886;28;20107;-62
2022/03/28 09:57:48;;;;;;;36.90;24.40;;;;;;;;;;5099728;28;20039;-62
2022/03/28 10:00:17;;;;;;;39.95;24.50;;;;;;;;;;5086183;28;20091;-61
2022/03/28 10:02:43;;;;;;;36.53;24.27;;;;;;;;;;5093392;28;20050;-62
2022/03/28 10:05:09;;;;;;;37.95;23.13;;;;;;;;;;5092922;27;20047;-61
2022/03/28 10:07:36;;;;;;;39.45;23.45;;;;;;;;;;5092608;28;20139;-62
2022/03/28 10:10:03;;;;;;;37.97;23.58;;;;;;;;;;5089368;28;20438;-61
2022/03/28 10:12:29;;;;;;;39.15;23.45;;;;;;;;;;5092329;28;20555;-62
2022/03/28 10:15:01;;;;;;;39.35;24.77;;;;;;;;;;5094244;28;20036;-62
2022/03/28 10:17:28;;;;;;;37.53;23.50;;;;;;;;;;5094776;27;20132;-61
2022/03/28 10:19:54;;;;;;;41.25;25.17;;;;;;;;;;5092160;28;20055;-62
2022/03/28 10:22:23;;;;;;;39.30;24.30;;;;;;;;;;5096013;28;20028;-62
2022/03/28 10:24:50;;;;;;;38.10;24.48;;;;;;;;;;5091214;28;20549;-62
2022/03/28 10:27:17;;;;;;;38.33;24.42;;;;;;;;;;5086650;28;20092;-61
2022/03/28 10:29:44;;;;;;;41.65;24.95;;;;;;;;;;5087094;28;20623;-60
2022/03/28 10:32:17;;;;;;;39.50;24.00;;;;;;;;;;5091131;28;20028;-62
2022/03/28 10:34:43;;;;;;;41.13;24.75;;;;;;;;;;5087358;28;20447;-62
2022/03/28 10:37:29;;;;;;;37.60;23.65;;;;;;;;;;5090352;28;20041;-62
2022/03/28 10:40:13;;;;;;;38.92;25.15;;;;;;;;;;5090217;28;20043;-62
2022/03/28 10:42:45;;;;;;;35.88;23.67;;;;;;;;;;5093631;28;20026;-62
2022/03/28 10:45:16;;;;;;;40.33;23.50;;;;;;;;;;5086747;28;20152;-61
2022/03/28 10:47:45;;;;;;;40.00;24.77;;;;;;;;;;5093807;28;20539;-61
2022/03/28 10:50:12;;;;;;;40.80;24.45;;;;;;;;;;5086765;28;20077;-61
2022/03/28 10:52:38;;;;;;;39.35;24.35;;;;;;;;;;5093549;28;20055;-62
2022/03/28 10:55:08;;;;;;;35.72;23.38;;;;;;;;;;5087453;28;20116;-62
2022/03/28 10:57:35;;;;;;;34.35;22.77;;;;;;;;;;5095471;28;20028;-61
2022/03/28 11:00:05;;;;;;;39.42;23.20;;;;;;;;;;5088208;28;20036;-61
2022/03/28 11:02:31;;;;;;;38.47;23.90;;;;;;;;;;5098304;28;20395;-62
2022/03/28 11:05:06;;;;;;;38.50;24.58;;;;;;;;;;5097186;28;20135;-62
2022/03/28 11:07:32;;;;;;;41.08;25.35;;;;;;;;;;5094198;28;20105;-61
2022/03/28 11:10:06;;;;;;;40.75;25.33;;;;;;;;;;5092603;28;20032;-61
2022/03/28 11:12:40;;;;;;;40.08;24.38;;;;;;;;;;5088927;28;20020;-61
2022/03/28 11:15:19;;;;;;;39.97;25.48;;;;;;;;;;5099322;28;20336;-61
2022/03/28 11:17:52;;;;;;;41.05;25.67;;;;;;;;;;5093047;28;20024;-60
2022/03/28 11:20:20;;;;;;;;;;;;;;;;;;5092851;28;20022;-61
2022/03/28 11:22:49;;;;;;;40.42;25.83;;;;;;;;;;5096589;28;20430;-61
2022/03/28 11:25:27;;;;;;;47.65;25.30;;;;;;;;;;5090068;28;20032;-61
2022/03/28 11:28:02;;;;;;;40.05;25.20;;;;;;;;;;5097913;28;20427;-61
2022/03/28 11:30:28;;;;;;;42.55;26.23;;;;;;;;;;5094576;28;20027;-61
2022/03/28 11:32:55;;;;;;;43.78;26.08;;;;;;;;;;5092615;28;20115;-61
2022/03/28 11:35:21;;;;;;;40.53;25.13;;;;;;;;;;5092569;28;20027;-61
2022/03/28 11:37:48;;;;;;;46.00;27.02;;;;;;;;;;5099533;28;20019;-60
2022/03/28 11:40:14;;;;;;;45.78;26.63;;;;;;;;;;5089812;28;20031;-61
2022/03/28 11:42:45;;;;;;;42.35;25.77;;;;;;;;;;5094995;28;20020;-60
2022/03/28 11:45:12;;;;;;;43.35;26.55;;;;;;;;;;5092279;28;20045;-61
2022/03/28 11:47:40;;;;;;;44.28;27.15;;;;;;;;;;5094142;28;20510;-61
2022/03/28 11:50:08;;;;;;;43.35;27.77;;;;;;;;;;5095707;28;20047;-62
2022/03/28 11:52:34;;;;;;;44.70;27.60;;;;;;;;;;5091130;27;20107;-62
2022/03/28 11:55:01;;;;;;;44.28;26.10;;;;;;;;;;5091346;28;20032;-62
2022/03/28 12:00:20;;;;;;;43.33;25.63;;;;;;;;;;5094115;28;20078;-61
2022/03/28 12:02:51;;;;;;;40.13;26.23;;;;;;;;;;5096577;28;20019;-61
2022/03/28 12:05:27;;;;;;;43.13;26.25;;;;;;;;;;5097843;28;20019;-61
2022/03/28 12:07:54;;;;;;;41.92;26.60;;;;;;;;;;5096807;28;20410;-61
2022/03/28 12:10:28;;;;;;;41.63;26.25;;;;;;;;;;5097262;28;20161;-61
2022/03/28 12:12:55;;;;;;;40.17;25.88;;;;;;;;;;5097259;28;20089;-61
2022/03/28 12:15:25;;;;;;;42.13;26.50;;;;;;;;;;5098364;28;20040;-61
2022/03/28 12:17:54;;;;;;;43.08;25.75;;;;;;;;;;5094318;28;20032;-61
2022/03/28 12:20:24;;;;;;;38.83;25.08;;;;;;;;;;5095500;28;20153;-61
2022/03/28 12:22:50;;;;;;;50.92;26.98;;;;;;;;;;5094461;28;20124;-61
2022/03/28 12:25:23;;;;;;;40.75;25.90;;;;;;;;;;5096565;28;20016;-61
2022/03/28 12:27:56;;;;;;;40.70;25.23;;;;;;;;;;5093026;28;20031;-62
2022/03/28 12:30:29;;;;;;;41.15;25.35;;;;;;;;;;5092379;28;20032;-61
2022/03/28 12:32:56;;;;;;;41.58;26.20;;;;;;;;;;5093672;28;20111;-61
2022/03/28 12:35:23;;;;;;;39.42;25.08;;;;;;;;;;5094121;28;20028;-61
2022/03/28 12:37:59;;;;;;;42.28;26.38;;;;;;;;;;5092201;28;20028;-61
2022/03/28 12:40:26;;;;;;;41.75;25.70;;;;;;;;;;5097989;28;20035;-61
2022/03/28 12:42:52;;;;;;;43.13;25.77;;;;;;;;;;5090171;28;20123;-61
2022/03/28 12:45:18;;;;;;;43.90;25.70;;;;;;;;;;5093400;28;20039;-61
2022/03/28 12:47:55;;;;;;;41.88;26.35;;;;;;;;;;5092646;28;20399;-61
2022/03/28 12:50:23;;;;;;;48.90;30.38;;;;;;;;;;5099193;28;20426;-61
2022/03/28 12:52:49;;;;;;;40.13;25.45;;;;;;;;;;5095616;28;20024;-61
2022/03/28 12:55:24;;;;;;;42.22;25.55;;;;;;;;;;5091691;28;20391;-61
2022/03/28 12:57:51;;;;;;;43.72;26.05;;;;;;;;;;5092904;28;20109;-61
2022/03/28 13:00:23;;;;;;;43.45;26.23;;;;;;;;;;5094113;28;20019;-61
2022/03/28 13:02:51;;;;;;;45.22;27.13;;;;;;;;;;5099400;28;20205;-61
2022/03/28 13:05:17;;;;;;;51.58;26.90;;;;;;;;;;5092867;28;20039;-61
2022/03/28 13:07:43;;;;;;;43.70;25.92;;;;;;;;;;5098253;28;20582;-61
2022/03/28 13:10:18;;;;;;;43.30;25.85;;;;;;;;;;5095973;28;20028;-62
2022/03/28 13:12:44;;;;;;;44.20;25.13;;;;;;;;;;5091436;28;20435;-62
2022/03/28 13:15:13;;;;;;;44.85;26.85;;;;;;;;;;5089286;28;20206;-61
2022/03/28 13:17:43;;;;;;;48.58;25.85;;;;;;;;;;5095279;28;20035;-62
2022/03/28 13:20:10;;;;;;;41.03;25.05;;;;;;;;;;5093206;28;20020;-62
2022/03/28 13:22:37;;;;;;;41.60;26.13;;;;;;;;;;5093483;28;20099;-62
2022/03/28 13:25:11;;;;;;;43.35;26.10;;;;;;;;;;5094883;28;20063;-62
2022/03/28 13:30:24;;;;;;;43.55;25.10;;;;;;;;;;5096047;28;20051;-61
2022/03/28 13:32:50;;;;;;;44.17;26.20;;;;;;;;;;5096094;28;20065;-62
2022/03/28 13:35:17;;;;;;;40.10;25.02;;;;;;;;;;5092850;28;20027;-61
2022/03/28 13:37:53;;;;;;;43.63;24.83;;;;;;;;;;5095055;28;20038;-61
2022/03/28 13:40:19;;;;;;;40.67;24.65;;;;;;;;;;5089951;28;20032;-62
2022/03/28 13:42:45;;;;;;;40.95;25.83;;;;;;;;;;5098481;28;20030;-61
2022/03/28 13:45:11;;;;;;;44.85;24.77;;;;;;;;;;5094277;28;20020;-62
2022/03/28 13:47:37;;;;;;;44.05;24.05;;;;;;;;;;5093864;28;20453;-62
2022/03/28 13:50:03;;;;;;;42.40;24.00;;;;;;;;;;5091228;28;20101;-61
2022/03/28 13:52:29;;;;;;;41.63;25.13;;;;;;;;;;5096591;28;20434;-61
2022/03/28 13:54:55;;;;;;;42.85;25.15;;;;;;;;;;5097534;28;20062;-62
2022/03/28 13:57:21;;;;;;;42.30;25.55;;;;;;;;;;5097006;27;20198;-61
2022/03/28 13:59:47;;;;;;;39.15;24.00;;;;;;;;;;5095241;28;20089;-61
2022/03/28 14:02:13;;;;;;;40.22;24.70;;;;;;;;;;5091172;28;20045;-62
2022/03/28 14:04:39;;;;;;;41.55;24.65;;;;;;;;;;5093606;28;20020;-61
2022/03/28 14:07:05;;;;;;;39.90;24.15;;;;;;;;;;5095649;28;20032;-61
2022/03/28 14:09:31;;;;;;;45.58;26.38;;;;;;;;;;5095300;28;20776;-62
2022/03/28 14:11:58;;;;;;;43.08;25.00;;;;;;;;;;5094581;28;20604;-61
2022/03/28 14:14:25;;;;;;;40.88;25.27;;;;;;;;;;5094143;28;20321;-61
2022/03/28 14:16:52;;;;;;;39.67;23.42;;;;;;;;;;5089577;28;20069;-61
2022/03/28 14:19:18;;;;;;;42.83;25.15;;;;;;;;;;5096554;28;20028;-61
2022/03/28 14:21:44;;;;;;;42.00;24.42;;;;;;;;;;5092719;28;20023;-61
2022/03/28 14:24:12;;;;;;;42.65;24.75;;;;;;;;;;5090888;28;20796;-62